Аэропорт: Псков. Псков

ICAO: ULOO

METAR:
2022-06-26 12:00:00
ULOO 261200Z 17002MPS 120V230 CAVOK 30/18 Q1021 R19/090060 NOSIG RMK QFE761
METAR:
2022-06-26 10:55:00
TAF ULOO 261055Z 2612/2621 VRB01MPS 9999 SCT030 TX31/2612Z TN21/2621Z